• Join FlightAware (Why Join?)
  • Login
  • US Flag 
05:20AM EDT


 

Airport Tracker/Info


-or-


 

Live Flight TrackerFlight Track Log ✈ GJS6241 ✈ 10-Apr-2013 ✈ KLGA - KCHO

Flight Track Log - Related Links

Times and Time Zones

All times are in EDT time to prevent confusion due to time zone crossing. See the GJS6241 flight status page for this flight to view local times or setup timezone preferences in your user account.

Time Position Orientation Groundspeed Altitude Reporting Facility
EDT Latitude Longitude Course Direction KTS MPH feet Rate Location/Type
11:07PM 40.7500 -73.8500 166° South 172 198 1,600  Level New York TRACON
11:08PM 40.7000 -73.8333 166° South 255 293 4,700 3,000 Climbing New York TRACON
11:09PM 40.6333 -73.8833 210° Southwest 271 312 8,000 2,520 Climbing New York TRACON
11:10PM 40.5667 -73.9333 210° Southwest 283 326 10,100 1,080 Climbing New York TRACON
11:11PM 40.5000 -74.0000 217° Southwest 293 337 10,200 600 Climbing New York TRACON
11:12PM 40.4333 -74.0500 210° Southwest 282 325 11,400 2,340 Climbing New York TRACON
11:13PM 40.3667 -74.1000 210° Southwest 279 321 14,700 2,400 Climbing New York TRACON
11:14PM 40.3000 -74.1500 210° Southwest 295 339 16,000 660 Climbing New York TRACON
11:15PM 40.2667 -74.2500 246° West 318 366 16,100  Climbing New York TRACON
11:16PM 40.3136 -74.3503 302° West 328 377 16,100 480 Level New York Center
11:17PM 40.3517 -74.4639 294° West 317 365 17,200 1,200 Climbing New York Center
11:18PM 40.3608 -74.5681 277° West 292 336 18,600 1,200 Climbing New York Center
11:19PM 40.3281 -74.6806 249° West 299 344 19,700 660 Climbing New York Center
11:20PM 40.2950 -74.7956 249° West 321 369 19,900 120 Climbing New York Center
11:21PM 40.2642 -74.9053 250° West 326 375 20,000  Climbing New York Center
11:22PM 40.2308 -75.0175 249° West 326 375 20,000  Level New York Center
11:23PM 40.1994 -75.1381 251° West 338 389 20,000  Level New York Center
11:24PM 40.1681 -75.2528 250° West 344 396 20,000  Level New York Center
11:25PM 40.1392 -75.3542 250° West 344 396 20,000  Level New York Center
11:26PM 40.0992 -75.4656 245° Southwest 344 396 20,000  Level New York Center
11:27PM 40.0550 -75.5819 244° Southwest 350 403 20,000  Level New York Center
11:28PM 39.9925 -75.6833 231° Southwest 355 409 20,000  Level New York Center
11:29PM 39.9214 -75.7839 227° Southwest 378 435 20,000  Level New York Center
11:30PM 39.8706 -75.8992 240° Southwest 378 435 20,000  Level New York Center
11:31PM 39.8219 -76.0119 241° Southwest 371 427 20,000  Level New York Center
11:33PM 39.6867 -76.2900 238° Southwest 373 429 20,000  Level Washington Center
11:34PM 39.6111 -76.3753 221° Southwest 373 429 20,000 -60 Level Washington Center
11:35PM 39.5397 -76.4500 219° Southwest 359 413 19,900 -540 Descending Washington Center
11:36PM 39.4414 -76.4917 198° South 348 400 19,000 -480 Descending Washington Center
11:37PM 39.3306 -76.5467 201° Southwest 383 441 19,000  Level Washington Center
11:38PM 39.2589 -76.6342 223° Southwest 361 415 19,000  Level Washington Center
11:39PM 39.1917 -76.7164 223° Southwest 355 409 19,000  Level Washington Center
11:40PM 39.1333 -76.8000 228° Southwest 377 434 19,000  Level Potomac TRACON
11:42PM 38.9797 -77.0283 229° Southwest 411 473 19,000  Level Washington Center
11:43PM 38.9139 -77.1444 234° Southwest 411 473 19,000  Level Washington Center
11:44PM 38.8478 -77.2575 233° Southwest 405 466 19,000  Level Washington Center
11:45PM 38.7836 -77.3653 233° Southwest 405 466 19,000 -180 Level Washington Center
11:46PM 38.7194 -77.4756 233° Southwest 405 466 18,700 -1,140 Descending Washington Center
11:47PM 38.6572 -77.5775 232° Southwest 394 453 16,800 -1,740 Descending Washington Center
11:48PM 38.6078 -77.6639 234° Southwest 369 425 15,300 -1,680 Descending Washington Center
11:49PM 38.5497 -77.7633 233° Southwest 358 412 13,500 -1,800 Descending Washington Center
11:50PM 38.4939 -77.8544 232° Southwest 340 391 11,700 -1,800 Descending Washington Center
11:51PM 38.4422 -77.9431 233° Southwest 330 380 10,000 -900 Descending Washington Center
11:52PM 38.3883 -78.0339 233° Southwest 330 380 10,000 -1,500 Level Washington Center
11:55PM 38.2833 -78.2167 234° Southwest 279 321 5,100 -1,800 Descending Potomac TRACON
11:56PM 38.2500 -78.2833 238° Southwest 260 299 4,000 -840 Descending Potomac TRACON
11:57PM 38.2500 -78.3500 270° West 240 276 3,600 -300 Descending Potomac TRACON
11:58PM 38.2333 -78.4333 256° West 221 254 3,400 -120 Descending Potomac TRACON
11:59PM 38.2333 -78.4500 270° West 145 167 3,400  Level Potomac TRACON
12:01AM 38.2333 -78.4500 360° North 145 167 3,400  Level Potomac TRACON